Latest Weather Observations for Charles Point

IDD60801

Issued at 8:01 pm CST Sunday 16 December 2018 (issued every 10 minutes, with the page automatically refreshed every 10 minutes)

About weather observations | Map of weather stations | Latest weather observations for NT | Other Formats
Station Details ID: 014031 Name: CHARLES POINT Lat: -12.39 Lon: 130.63 Height: 14.0 m
Data from the previous 72 hours. | See also: Recent months for locations in Northern Territory
Date/Time
CST
Temp
°C
App
Temp
°C
Dew
Point
°C
Rel
Hum
%
Delta-T
°C
Wind Press
QNH
hPa
Press
MSL
hPa
Rain since
9am
mm
Dir  Spd
km/h
Gust
km/h
Spd
kts
Gust
kts
16/08:00pm 30.0 34.3 25.5 77 3.2 W 13 22 7 12 1006.3 1006.1 0.0
16/07:30pm 29.9 34.8 25.2 76 3.3 W 9 17 5 9 1006.1 1005.9 0.0
16/07:00pm 30.1 34.7 25.4 76 3.3 W 11 20 6 11 1005.8 1005.6 0.0
16/06:30pm 30.3 35.3 25.4 75 3.5 W 9 20 5 11 1005.8 1005.6 0.0
16/06:00pm 30.5 35.2 24.9 72 3.9 W 9 20 5 11 1005.6 1005.4 0.0
16/05:30pm 30.8 35.3 25.2 72 4.0 W 11 17 6 9 1005.6 1005.4 0.0
16/05:00pm 31.1 35.5 25.0 70 4.3 W 11 20 6 11 1005.6 1005.4 0.0
16/04:30pm 31.5 35.2 25.1 69 4.5 W 15 22 8 12 1005.6 1005.4 0.0
16/04:00pm 31.8 35.3 24.9 67 4.9 W 15 28 8 15 1005.9 1005.7 0.0
16/03:30pm 32.5 36.2 25.1 65 5.2 W 15 24 8 13 1005.9 1005.7 0.0
16/03:00pm 32.1 35.3 24.9 65 5.1 W 17 28 9 15 1006.0 1005.8 0.0
16/02:30pm 32.4 35.8 24.7 64 5.4 W 15 26 8 14 1006.3 1006.1 0.0
16/02:00pm 32.5 36.7 25.3 66 5.1 W 13 26 7 14 1006.6 1006.4 0.0
16/01:30pm 31.8 35.5 25.2 68 4.7 W 15 24 8 13 1006.8 1006.6 0.0
16/01:00pm 32.3 36.0 25.1 65 5.1 W 15 28 8 15 1007.0 1006.8 0.0
16/12:30pm 32.2 35.7 24.8 65 5.2 W 15 30 8 16 1007.3 1007.1 0.0
16/12:00pm 31.7 34.7 24.0 63 5.4 W 15 26 8 14 1007.5 1007.3 0.0
16/11:30am 32.0 35.7 24.6 65 5.2 W 13 24 7 13 1008.0 1007.8 0.0
16/11:00am 31.7 35.4 24.6 66 5.0 W 13 22 7 12 1007.9 1007.7 0.0
16/10:30am 31.2 34.7 24.8 69 4.5 W 15 26 8 14 1007.9 1007.7 0.0
16/10:00am 31.3 35.5 24.7 68 4.6 W 11 22 6 12 1007.9 1007.7 0.0
16/09:30am 31.4 35.5 24.5 67 4.8 W 11 20 6 11 1007.8 1007.6 0.0
16/09:00am 30.9 35.3 24.5 68 4.5 WSW 9 17 5 9 1008.1 1007.9 0.0
16/08:30am 29.9 34.6 24.3 72 3.9 WSW 7 15 4 8 1008.1 1007.9 0.0
16/08:00am 30.2 34.4 24.1 70 4.2 W 9 20 5 11 1008.2 1008.0 0.0
16/07:30am 29.7 33.6 24.3 73 3.8 W 11 20 6 11 1008.0 1007.8 0.0
16/07:00am 29.6 33.3 24.5 74 3.6 W 13 28 7 15 1007.5 1007.3 0.0
16/06:30am 29.4 32.8 24.0 72 3.7 W 13 20 7 11 1007.1 1006.9 0.0
16/06:00am 29.3 32.3 24.0 73 3.7 W 15 26 8 14 1006.7 1006.5 0.0
16/05:30am 29.3 33.4 24.0 73 3.7 W 9 19 5 10 1006.3 1006.1 0.0
16/05:00am 29.4 33.1 24.5 75 3.4 W 13 22 7 12 1005.7 1005.5 0.0
16/04:30am 29.2 33.3 24.5 76 3.3 W 11 22 6 12 1005.2 1005.0 0.0
16/04:00am 29.3 33.3 24.4 75 3.4 W 11 20 6 11 1005.5 1005.3 0.0
16/03:30am 29.2 33.8 24.7 77 3.2 W 9 20 5 11 1005.1 1004.9 0.0
16/03:00am 29.0 33.7 24.3 76 3.3 W 7 17 4 9 1005.1 1004.9 0.0
16/02:30am 29.1 33.6 24.0 74 3.5 WSW 7 13 4 7 1005.3 1005.1 0.0
16/02:00am 29.3 33.2 24.2 74 3.5 W 11 20 6 11 1005.5 1005.3 0.0
16/01:30am 29.4 33.5 24.5 75 3.4 W 11 20 6 11 1005.9 1005.7 0.0
16/01:00am 29.5 33.1 24.4 74 3.6 W 13 20 7 11 1006.1 1005.9 0.0
16/12:30am 29.6 33.4 24.7 75 3.4 WNW 13 24 7 13 1006.5 1006.3 0.0
16/12:00am 29.6 33.1 24.2 73 3.8 W 13 20 7 11 1006.9 1006.7 0.0
 
Date/Time
CST
Temp
°C
App
Temp
°C
Dew
Point
°C
Rel
Hum
%
Delta-T
°C
Wind Press
QNH
hPa
Press
MSL
hPa
Rain since
9am
mm
Dir  Spd
km/h
Gust
km/h
Spd
kts
Gust
kts
15/11:30pm 29.5 33.2 23.9 72 3.9 W 11 20 6 11 1007.0 1006.8 0.0
15/11:00pm 29.5 33.3 24.1 72 3.7 W 11 22 6 12 1006.9 1006.7 0.0
15/10:30pm 29.6 33.5 24.2 73 3.8 W 11 20 6 11 1006.4 1006.2 0.0
15/10:00pm 29.7 33.1 24.1 72 3.9 W 13 20 7 11 1006.2 1006.0 0.0
15/09:30pm 29.8 34.0 24.7 74 3.6 W 11 26 6 14 1006.1 1005.9 0.0
15/09:00pm 29.8 33.3 24.2 72 3.9 W 13 24 7 13 1005.9 1005.7 0.0
15/08:30pm 29.9 33.8 24.3 72 3.9 W 11 24 6 13 1005.7 1005.5 0.0
15/08:00pm 29.9 34.3 24.5 73 3.8 W 9 17 5 9 1005.3 1005.1 0.0
15/07:30pm 29.9 34.3 25.0 75 3.5 W 11 22 6 12 1004.8 1004.6 0.0
15/07:00pm 30.1 34.2 24.5 72 3.9 W 11 22 6 12 1004.4 1004.2 0.0
15/06:30pm 30.5 34.2 24.6 70 4.1 W 13 20 7 11 1004.2 1004.0 0.0
15/06:00pm 31.2 35.6 25.1 70 4.3 W 11 26 6 14 1004.3 1004.1 0.0
15/05:30pm 31.6 34.6 25.2 69 4.5 WNW 19 35 10 19 1004.3 1004.1 0.0
15/05:00pm 31.5 35.5 25.6 71 4.2 W 15 26 8 14 1004.3 1004.1 0.0
15/04:30pm 31.8 35.5 25.2 68 4.7 W 15 26 8 14 1004.1 1003.9 0.0
15/04:00pm 32.3 36.7 25.6 67 4.8 W 13 28 7 15 1004.2 1004.0 0.0
15/03:30pm 32.5 36.6 25.8 68 4.8 W 15 24 8 13 1004.5 1004.3 0.0
15/03:00pm 32.4 35.8 25.2 66 5.1 W 17 26 9 14 1004.7 1004.5 0.0
15/02:30pm 33.0 37.2 25.3 64 5.5 W 13 28 7 15 1004.8 1004.6 0.0
15/02:00pm 32.4 36.6 26.0 69 4.6 W 15 24 8 13 1005.2 1005.0 0.0
15/01:30pm 32.8 37.5 26.1 68 4.8 W 13 26 7 14 1005.7 1005.5 0.0
15/01:00pm 32.2 35.9 25.8 69 4.6 W 17 26 9 14 1005.9 1005.7 0.0
15/12:30pm 32.2 36.8 26.0 70 4.4 W 13 24 7 13 1006.4 1006.2 0.0
15/12:00pm 32.4 36.8 25.7 68 4.8 W 13 26 7 14 1006.5 1006.3 0.0
15/11:30am 31.7 35.9 26.0 72 4.1 W 15 22 8 12 1007.0 1006.8 0.0
15/11:00am 31.8 35.7 26.1 72 4.1 W 17 26 9 14 1007.3 1007.1 0.0
15/10:30am 31.6 36.2 25.9 72 4.1 W 13 24 7 13 1007.6 1007.4 0.0
15/10:00am 31.0 34.6 25.6 73 3.8 W 17 26 9 14 1007.6 1007.4 0.0
15/09:30am 30.8 34.5 25.8 74 3.6 W 17 28 9 15 1007.4 1007.2 0.0
15/09:00am 31.0 35.5 25.8 74 3.7 W 13 24 7 13 1007.3 1007.1 0.0
15/08:30am 31.0 35.6 25.4 72 4.0 W 11 24 6 13 1007.0 1006.8 0.0
15/08:00am 30.5 34.7 25.3 74 3.7 W 13 22 7 12 1006.5 1006.3 0.0
15/07:30am 30.0 34.2 25.3 76 3.3 W 13 20 7 11 1006.3 1006.1 0.0
15/07:00am 29.7 34.1 25.0 76 3.3 W 11 20 6 11 1006.1 1005.9 0.0
15/06:30am 29.6 33.5 24.9 76 3.3 W 13 20 7 11 1005.7 1005.5 0.0
15/06:00am 29.5 33.9 25.0 77 3.2 W 11 22 6 12 1005.2 1005.0 0.0
15/05:30am 29.4 33.7 24.9 77 3.2 W 11 24 6 13 1004.6 1004.4 0.0
15/05:00am 29.4 33.7 24.9 77 3.2 W 11 22 6 12 1004.3 1004.1 0.0
15/04:30am 29.5 33.7 25.3 78 3.0 W 13 22 7 12 1004.4 1004.2 0.0
15/04:00am 29.6 33.5 24.9 76 3.3 W 13 24 7 13 1004.4 1004.2 0.0
15/03:30am 29.6 33.5 24.9 76 3.3 W 13 28 7 15 1004.6 1004.4 0.0
15/03:00am 29.7 33.2 25.4 78 3.0 W 17 28 9 15 1004.8 1004.6 0.0
15/02:30am 29.6 34.0 25.1 77 3.2 W 11 19 6 10 1005.0 1004.8 0.0
15/02:00am 29.7 33.7 25.0 76 3.3 W 13 20 7 11 1005.1 1004.9 0.0
15/01:30am 29.7 33.7 25.0 76 3.3 W 13 26 7 14 1005.3 1005.1 0.0
15/01:00am 29.6 33.9 24.9 76 3.3 W 11 20 6 11 1005.5 1005.3 0.0
15/12:30am 29.8 34.0 25.3 77 3.2 W 13 24 7 13 1005.8 1005.6 0.0
15/12:00am 29.6 33.4 24.7 75 3.4 W 13 22 7 12 1005.8 1005.6 0.0
 
Date/Time
CST
Temp
°C
App
Temp
°C
Dew
Point
°C
Rel
Hum
%
Delta-T
°C
Wind Press
QNH
hPa
Press
MSL
hPa
Rain since
9am
mm
Dir  Spd
km/h
Gust
km/h
Spd
kts
Gust
kts
14/11:30pm 29.4 34.1 24.9 77 3.2 W 9 17 5 9 1006.3 1006.1 0.0
14/11:00pm 29.5 33.7 24.8 76 3.3 W 11 20 6 11 1006.6 1006.4 0.0
14/10:30pm 29.6 33.4 24.7 75 3.4 W 13 24 7 13 1006.4 1006.2 0.0
14/10:00pm 29.7 34.6 25.2 77 3.2 W 9 17 5 9 1006.3 1006.1 0.0
14/09:30pm 29.6 33.6 25.1 77 3.2 W 13 20 7 11 1006.0 1005.8 0.0
14/09:00pm 29.6 34.4 25.1 77 3.2 W 9 22 5 12 1005.6 1005.4 0.0
14/08:30pm 29.6 34.2 24.7 75 3.4 WSW 9 20 5 11 1005.4 1005.2 0.0
14/08:00pm 29.5 34.1 24.8 76 3.3 WSW 9 17 5 9 1004.9 1004.7 0.0
14/07:30pm 29.7 34.3 24.8 75 3.4 WSW 9 20 5 11 1004.5 1004.3 0.0
14/07:00pm 29.8 34.4 25.3 77 3.2 WSW 11 19 6 10 1004.2 1004.0 0.0
14/06:30pm 30.0 34.6 25.3 76 3.3 W 11 26 6 14 1004.1 1003.9 0.0
14/06:00pm 30.2 34.0 25.3 75 3.5 W 15 30 8 16 1004.0 1003.8 0.0
14/05:30pm 30.4 34.6 24.8 72 3.9 WSW 11 20 6 11 1004.0 1003.8 0.0
14/05:00pm 30.4 35.1 25.5 75 3.5 W 11 26 6 14 1003.8 1003.6 0.0
14/04:30pm 30.8 35.3 25.8 74 3.6 W 13 26 7 14 1003.9 1003.7 0.0
14/04:00pm 30.8 34.2 25.8 74 3.6 WNW 19 30 10 16 1004.0 1003.8 0.0
14/03:30pm 31.4 34.8 26.2 74 3.7 WNW 20 28 11 15 1004.0 1003.8 0.0
14/03:00pm 31.5 34.7 25.8 72 4.1 WNW 20 26 11 14 1004.1 1003.9 0.0
14/02:30pm 31.4 35.3 25.5 71 4.2 WNW 15 22 8 12 1004.3 1004.1 0.0
14/02:00pm 31.6 35.5 25.5 70 4.3 WNW 15 20 8 11 1004.5 1004.3 0.0
14/01:30pm 31.8 36.4 25.9 71 4.2 NW 13 19 7 10 1004.8 1004.6 0.0
14/01:00pm 31.4 35.5 25.7 71 4.1 WNW 15 20 8 11 1005.1 1004.9 0.0
14/12:30pm 31.0 34.6 25.6 73 3.8 WNW 17 24 9 13 1005.0 1004.8 0.0
14/12:00pm 31.5 35.1 26.1 73 3.9 WNW 19 24 10 13 1005.2 1005.0 0.0
14/11:30am 31.1 34.5 25.2 71 4.2 WNW 17 22 9 12 1005.6 1005.4 0.0
14/11:00am 30.8 35.1 23.7 66 4.9 NW 7 13 4 7 1005.9 1005.7 0.0
14/10:30am 30.6 34.3 23.3 65 5.0 NW 9 13 5 7 1006.3 1006.1 0.0
14/10:00am 31.2 35.1 23.0 61 5.6 W 7 15 4 8 1006.5 1006.3 0.0
14/09:30am 30.6 34.5 21.9 59 5.9 WSW 4 9 2 5 1006.6 1006.4 0.0
14/09:00am 30.1 33.7 22.0 62 5.5 SSW 6 13 3 7 1006.9 1006.7 0.0
14/08:30am 28.6 31.4 20.9 63 5.1 S 7 11 4 6 1006.7 1006.5 0.0
14/08:00am 28.2 30.5 20.7 63 5.0 SSW 9 19 5 10 1006.7 1006.5 0.0
14/07:30am 27.9 31.4 21.9 70 4.0 SSW 6 9 3 5 1006.4 1006.2 0.0
14/07:00am 27.1 31.1 23.1 79 2.7 SSW 7 15 4 8 1005.9 1005.7 0.0
14/06:30am 26.5 30.3 23.4 83 2.1 SW 9 20 5 11 1005.3 1005.1 0.0
14/06:00am 27.1 29.7 23.3 80 2.6 SW 15 28 8 15 1005.2 1005.0 0.0
14/05:30am 28.4 31.8 24.6 80 2.7 W 15 30 8 16 1004.3 1004.1 0.0
14/05:00am 28.4 33.4 24.8 81 2.5 W 7 13 4 7 1003.8 1003.6 0.0
14/04:30am 28.2 32.7 24.0 78 2.9 WSW 7 17 4 9 1003.8 1003.6 0.0
14/04:00am 29.1 32.3 24.9 78 2.9 WSW 17 35 9 19 1004.3 1004.1 0.0
14/03:30am 29.9 33.4 25.4 77 3.2 W 17 33 9 18 1004.6 1004.4 0.0
14/03:00am 29.7 33.6 25.4 78 3.0 W 15 32 8 17 1004.8 1004.6 0.0
14/02:30am 29.8 33.6 25.3 77 3.2 W 15 28 8 15 1005.0 1004.8 0.0
14/02:00am 30.0 34.2 25.3 76 3.3 W 13 30 7 16 1005.5 1005.3 0.0
14/01:30am 29.8 33.6 25.3 77 3.2 W 15 30 8 16 1005.1 1004.9 0.0
14/01:00am 29.8 33.3 25.5 78 3.0 W 17 32 9 17 1004.7 1004.5 0.0
14/12:30am 29.7 32.7 25.2 77 3.2 W 19 30 10 16 1005.0 1004.8 0.0
14/12:00am 29.6 33.9 24.9 76 3.3 W 11 20 6 11 1005.9 1005.7 0.0
 
Date/Time
CST
Temp
°C
App
Temp
°C
Dew
Point
°C
Rel
Hum
%
Delta-T
°C
Wind Press
QNH
hPa
Press
MSL
hPa
Rain since
9am
mm
Dir  Spd
km/h
Gust
km/h
Spd
kts
Gust
kts
13/11:30pm 29.7 34.3 24.8 75 3.4 WSW 9 20 5 11 1006.2 1006.0 0.0
13/11:00pm 29.7 33.9 24.8 75 3.4 W 11 20 6 11 1006.4 1006.2 0.0
13/10:30pm 29.9 34.5 24.8 74 3.6 WSW 9 19 5 10 1006.8 1006.6 0.0
13/10:00pm 29.8 34.5 24.9 75 3.4 WSW 9 17 5 9 1006.7 1006.5 0.0
13/09:30pm 29.8 34.9 24.9 75 3.4 WSW 7 17 4 9 1006.6 1006.4 0.0
13/09:00pm 30.0 34.4 24.4 72 3.9 WSW 9 20 5 11 1006.5 1006.3 0.0
13/08:30pm 29.9 33.9 25.0 75 3.5 WSW 13 24 7 13 1005.8 1005.6 0.0

Other Formats:

Comma delimited format used in spreadsheet applications
http://www.bom.gov.au/fwo/IDD60801/IDD60801.99510.axf

JavaScript Object Notation format (JSON) in row-major order
http://www.bom.gov.au/fwo/IDD60801/IDD60801.99510.json